sensor_id;sensor_type;location;lat;lon;timestamp;pressure;altitude;pressure_sealevel;temperature;humidity
44453;BME280;30155;52.164;21.236;2022-12-07T00:03:10;99834.18;;;1.70;87.78
44453;BME280;30155;52.164;21.236;2022-12-07T00:08:01;99831.94;;;1.68;87.74
44453;BME280;30155;52.164;21.236;2022-12-07T00:12:52;99822.52;;;1.67;87.94
44453;BME280;30155;52.164;21.236;2022-12-07T00:17:43;99819.19;;;1.69;87.98
44453;BME280;30155;52.164;21.236;2022-12-07T00:22:34;99808.94;;;1.69;88.00
44453;BME280;30155;52.164;21.236;2022-12-07T00:27:27;99806.50;;;1.73;88.17
44453;BME280;30155;52.164;21.236;2022-12-07T00:32:18;99798.30;;;1.70;87.87
44453;BME280;30155;52.164;21.236;2022-12-07T00:37:08;99798.30;;;1.70;88.01
44453;BME280;30155;52.164;21.236;2022-12-07T00:42:00;99799.23;;;1.72;88.18
44453;BME280;30155;52.164;21.236;2022-12-07T00:46:50;99796.31;;;1.74;88.14
44453;BME280;30155;52.164;21.236;2022-12-07T00:51:41;99800.28;;;1.77;88.09
44453;BME280;30155;52.164;21.236;2022-12-07T00:56:33;99796.73;;;1.74;88.00
44453;BME280;30155;52.164;21.236;2022-12-07T01:01:26;99802.72;;;1.74;88.17
44453;BME280;30155;52.164;21.236;2022-12-07T01:06:21;99798.52;;;1.76;88.23
44453;BME280;30155;52.164;21.236;2022-12-07T01:11:16;99809.70;;;1.78;88.24
44453;BME280;30155;52.164;21.236;2022-12-07T01:16:11;99804.16;;;1.79;88.17
44453;BME280;30155;52.164;21.236;2022-12-07T01:26:05;99797.07;;;1.83;88.33
44453;BME280;30155;52.164;21.236;2022-12-07T01:31:07;99793.61;;;1.82;88.19
44453;BME280;30155;52.164;21.236;2022-12-07T01:36:08;99789.73;;;1.81;88.40
44453;BME280;30155;52.164;21.236;2022-12-07T01:41:12;99788.97;;;1.83;88.72
44453;BME280;30155;52.164;21.236;2022-12-07T01:46:04;99778.83;;;1.86;88.62
44453;BME280;30155;52.164;21.236;2022-12-07T01:50:56;99774.16;;;1.87;88.74
44453;BME280;30155;52.164;21.236;2022-12-07T01:55:52;99777.25;;;1.90;88.86
44453;BME280;30155;52.164;21.236;2022-12-07T02:00:44;99768.34;;;1.92;88.93
44453;BME280;30155;52.164;21.236;2022-12-07T02:05:37;99761.94;;;1.92;88.97
44453;BME280;30155;52.164;21.236;2022-12-07T02:10:31;99762.50;;;1.96;89.13
44453;BME280;30155;52.164;21.236;2022-12-07T02:15:26;99754.45;;;1.98;89.17
44453;BME280;30155;52.164;21.236;2022-12-07T02:26:19;99754.20;;;2.03;89.30
44453;BME280;30155;52.164;21.236;2022-12-07T02:31:12;99756.89;;;2.06;89.16
44453;BME280;30155;52.164;21.236;2022-12-07T02:36:11;99756.89;;;2.06;89.26
44453;BME280;30155;52.164;21.236;2022-12-07T02:41:20;99750.81;;;2.04;89.31
44453;BME280;30155;52.164;21.236;2022-12-07T02:46:31;99748.22;;;2.02;89.41
44453;BME280;30155;52.164;21.236;2022-12-07T02:51:24;99746.72;;;2.09;89.61
44453;BME280;30155;52.164;21.236;2022-12-07T03:12:42;99724.54;;;2.09;89.65
44453;BME280;30155;52.164;21.236;2022-12-07T03:17:39;99730.53;;;2.10;89.75
44453;BME280;30155;52.164;21.236;2022-12-07T03:22:34;99728.44;;;2.11;89.83
44453;BME280;30155;52.164;21.236;2022-12-07T03:27:32;99725.52;;;2.13;89.93
44453;BME280;30155;52.164;21.236;2022-12-07T03:32:32;99731.09;;;2.14;89.78
44453;BME280;30155;52.164;21.236;2022-12-07T03:42:34;99726.38;;;2.14;89.71
44453;BME280;30155;52.164;21.236;2022-12-07T03:47:45;99721.19;;;2.12;89.75
44453;BME280;30155;52.164;21.236;2022-12-07T03:52:47;99716.42;;;2.10;89.74
44453;BME280;30155;52.164;21.236;2022-12-07T03:57:39;99719.49;;;2.13;89.92
44453;BME280;30155;52.164;21.236;2022-12-07T04:02:33;99716.18;;;2.15;89.76
44453;BME280;30155;52.164;21.236;2022-12-07T04:07:24;99712.64;;;2.12;89.75
44453;BME280;30155;52.164;21.236;2022-12-07T04:12:16;99707.87;;;2.09;89.66
44453;BME280;30155;52.164;21.236;2022-12-07T04:17:08;99715.14;;;2.10;89.58
44453;BME280;30155;52.164;21.236;2022-12-07T04:22:01;99711.66;;;2.08;89.52
44453;BME280;30155;52.164;21.236;2022-12-07T04:26:54;99711.55;;;2.05;89.35
44453;BME280;30155;52.164;21.236;2022-12-07T04:31:45;99709.78;;;2.04;89.51
44453;BME280;30155;52.164;21.236;2022-12-07T04:36:38;99704.66;;;2.04;89.53
44453;BME280;30155;52.164;21.236;2022-12-07T04:41:29;99698.61;;;2.02;89.38
44453;BME280;30155;52.164;21.236;2022-12-07T04:46:20;99707.13;;;2.01;89.46
44453;BME280;30155;52.164;21.236;2022-12-07T04:51:11;99704.81;;;1.96;89.16
44453;BME280;30155;52.164;21.236;2022-12-07T04:56:02;99706.81;;;1.92;89.21
44453;BME280;30155;52.164;21.236;2022-12-07T05:00:55;99701.09;;;1.87;89.05
44453;BME280;30155;52.164;21.236;2022-12-07T05:05:46;99692.84;;;1.83;88.96
44453;BME280;30155;52.164;21.236;2022-12-07T05:10:37;99693.08;;;1.78;88.88
44453;BME280;30155;52.164;21.236;2022-12-07T05:15:28;99686.91;;;1.73;88.80
44453;BME280;30155;52.164;21.236;2022-12-07T05:20:19;99680.51;;;1.73;88.95
44453;BME280;30155;52.164;21.236;2022-12-07T05:25:10;99682.98;;;1.70;88.74
44453;BME280;30155;52.164;21.236;2022-12-07T05:30:01;99682.45;;;1.67;88.79
44453;BME280;30155;52.164;21.236;2022-12-07T05:34:52;99674.64;;;1.64;88.83
44453;BME280;30155;52.164;21.236;2022-12-07T05:39:45;99685.31;;;1.64;88.68
44453;BME280;30155;52.164;21.236;2022-12-07T05:44:36;99678.34;;;1.60;88.54
44453;BME280;30155;52.164;21.236;2022-12-07T05:49:27;99686.70;;;1.56;88.58
44453;BME280;30155;52.164;21.236;2022-12-07T05:54:18;99684.44;;;1.52;88.52
44453;BME280;30155;52.164;21.236;2022-12-07T05:59:09;99685.62;;;1.49;88.55
44453;BME280;30155;52.164;21.236;2022-12-07T06:04:18;99690.22;;;1.46;88.54
44453;BME280;30155;52.164;21.236;2022-12-07T06:09:10;99693.13;;;1.44;88.45
44453;BME280;30155;52.164;21.236;2022-12-07T06:14:01;99695.48;;;1.38;88.43
44453;BME280;30155;52.164;21.236;2022-12-07T06:18:52;99686.88;;;1.36;88.50
44453;BME280;30155;52.164;21.236;2022-12-07T06:23:42;99684.31;;;1.36;88.53
44453;BME280;30155;52.164;21.236;2022-12-07T06:28:33;99691.81;;;1.31;88.23
44453;BME280;30155;52.164;21.236;2022-12-07T06:33:25;99686.50;;;1.27;88.12
44453;BME280;30155;52.164;21.236;2022-12-07T06:38:17;99684.36;;;1.26;88.33
44453;BME280;30155;52.164;21.236;2022-12-07T06:43:08;99678.81;;;1.27;88.33
44453;BME280;30155;52.164;21.236;2022-12-07T06:47:59;99681.86;;;1.28;88.37
44453;BME280;30155;52.164;21.236;2022-12-07T06:52:51;99682.95;;;1.23;88.23
44453;BME280;30155;52.164;21.236;2022-12-07T06:57:42;99678.81;;;1.27;88.32
44453;BME280;30155;52.164;21.236;2022-12-07T07:02:34;99671.13;;;1.27;88.33
44453;BME280;30155;52.164;21.236;2022-12-07T07:07:25;99676.97;;;1.23;88.16
44453;BME280;30155;52.164;21.236;2022-12-07T07:12:16;99680.52;;;1.26;88.38
44453;BME280;30155;52.164;21.236;2022-12-07T07:17:06;99687.45;;;1.29;88.20
44453;BME280;30155;52.164;21.236;2022-12-07T07:21:57;99686.63;;;1.30;88.22
44453;BME280;30155;52.164;21.236;2022-12-07T07:26:48;99676.02;;;1.32;88.05
44453;BME280;30155;52.164;21.236;2022-12-07T07:31:39;99683.64;;;1.30;87.91
44453;BME280;30155;52.164;21.236;2022-12-07T07:36:30;99683.94;;;1.27;87.86
44453;BME280;30155;52.164;21.236;2022-12-07T07:41:21;99682.27;;;1.27;88.07
44453;BME280;30155;52.164;21.236;2022-12-07T07:46:12;99678.02;;;1.28;88.10
44453;BME280;30155;52.164;21.236;2022-12-07T07:51:07;99689.19;;;1.30;88.07
44453;BME280;30155;52.164;21.236;2022-12-07T07:55:58;99680.70;;;1.31;88.18
44453;BME280;30155;52.164;21.236;2022-12-07T08:00:50;99676.38;;;1.30;87.99
44453;BME280;30155;52.164;21.236;2022-12-07T08:05:41;99689.60;;;1.29;88.10
44453;BME280;30155;52.164;21.236;2022-12-07T08:10:32;99680.70;;;1.31;88.05
44453;BME280;30155;52.164;21.236;2022-12-07T08:15:23;99687.55;;;1.32;87.87
44453;BME280;30155;52.164;21.236;2022-12-07T08:20:15;99687.20;;;1.34;87.95
44453;BME280;30155;52.164;21.236;2022-12-07T08:25:06;99692.92;;;1.38;87.97
44453;BME280;30155;52.164;21.236;2022-12-07T08:29:58;99698.97;;;1.40;87.96
44453;BME280;30155;52.164;21.236;2022-12-07T08:34:49;99697.98;;;1.37;87.85
44453;BME280;30155;52.164;21.236;2022-12-07T08:39:40;99697.98;;;1.37;88.07
44453;BME280;30155;52.164;21.236;2022-12-07T08:44:31;99692.50;;;1.39;88.17
44453;BME280;30155;52.164;21.236;2022-12-07T08:49:26;99695.57;;;1.41;88.13
44453;BME280;30155;52.164;21.236;2022-12-07T08:54:22;99694.77;;;1.42;88.20
44453;BME280;30155;52.164;21.236;2022-12-07T08:59:14;99694.00;;;1.45;88.40
44453;BME280;30155;52.164;21.236;2022-12-07T09:04:07;99694.18;;;1.49;88.64
44453;BME280;30155;52.164;21.236;2022-12-07T09:08:59;99692.09;;;1.50;88.58
44453;BME280;30155;52.164;21.236;2022-12-07T09:13:52;99690.81;;;1.50;88.78
44453;BME280;30155;52.164;21.236;2022-12-07T09:18:43;99690.84;;;1.52;88.84
44453;BME280;30155;52.164;21.236;2022-12-07T09:23:35;99684.86;;;1.63;88.93
44453;BME280;30155;52.164;21.236;2022-12-07T09:28:26;99681.43;;;1.75;88.92
44453;BME280;30155;52.164;21.236;2022-12-07T09:33:17;99671.23;;;1.88;88.82
44453;BME280;30155;52.164;21.236;2022-12-07T09:38:08;99669.59;;;2.03;88.77
44453;BME280;30155;52.164;21.236;2022-12-07T09:43:00;99675.09;;;2.14;88.65
44453;BME280;30155;52.164;21.236;2022-12-07T09:47:51;99670.22;;;2.21;88.57
44453;BME280;30155;52.164;21.236;2022-12-07T09:52:44;99668.73;;;2.28;88.45
44453;BME280;30155;52.164;21.236;2022-12-07T09:57:38;99658.53;;;2.29;88.46
44453;BME280;30155;52.164;21.236;2022-12-07T10:02:38;99659.64;;;2.38;88.44
44453;BME280;30155;52.164;21.236;2022-12-07T10:07:32;99663.81;;;2.47;88.43
44453;BME280;30155;52.164;21.236;2022-12-07T10:12:23;99661.85;;;2.53;88.43
44453;BME280;30155;52.164;21.236;2022-12-07T10:17:36;99666.67;;;2.56;88.52
44453;BME280;30155;52.164;21.236;2022-12-07T10:22:35;99663.90;;;2.63;88.19
44453;BME280;30155;52.164;21.236;2022-12-07T10:27:31;99649.64;;;2.73;87.89
44453;BME280;30155;52.164;21.236;2022-12-07T10:32:34;99639.11;;;2.78;87.76
44453;BME280;30155;52.164;21.236;2022-12-07T10:37:26;99645.00;;;2.88;87.77
44453;BME280;30155;52.164;21.236;2022-12-07T10:42:24;99654.05;;;2.91;87.58
44453;BME280;30155;52.164;21.236;2022-12-07T10:52:54;99647.56;;;2.88;87.13
44453;BME280;30155;52.164;21.236;2022-12-07T11:03:43;99659.17;;;2.77;87.52
44453;BME280;30155;52.164;21.236;2022-12-07T11:30:21;99646.62;;;2.86;87.72
44453;BME280;30155;52.164;21.236;2022-12-07T11:40:35;99643.07;;;2.81;87.71
44453;BME280;30155;52.164;21.236;2022-12-07T11:45:31;99642.49;;;2.77;87.32
44453;BME280;30155;52.164;21.236;2022-12-07T12:06:15;99628.00;;;2.79;87.71
44453;BME280;30155;52.164;21.236;2022-12-07T12:17:01;99639.11;;;2.78;87.47
44453;BME280;30155;52.164;21.236;2022-12-07T12:27:17;99616.38;;;2.76;87.59
44453;BME280;30155;52.164;21.236;2022-12-07T12:42:43;99609.21;;;2.65;87.69
44453;BME280;30155;52.164;21.236;2022-12-07T12:47:42;99608.72;;;2.63;87.79
44453;BME280;30155;52.164;21.236;2022-12-07T12:57:48;99609.38;;;2.57;87.66
44453;BME280;30155;52.164;21.236;2022-12-07T13:02:59;99607.97;;;2.53;87.99
44453;BME280;30155;52.164;21.236;2022-12-07T13:07:53;99609.45;;;2.46;88.21
44453;BME280;30155;52.164;21.236;2022-12-07T13:23:24;99602.28;;;2.36;88.27
44453;BME280;30155;52.164;21.236;2022-12-07T13:28:39;99593.67;;;2.34;88.34
44453;BME280;30155;52.164;21.236;2022-12-07T13:33:34;99604.30;;;2.32;88.36
44453;BME280;30155;52.164;21.236;2022-12-07T13:38:32;99598.62;;;2.27;88.28
44453;BME280;30155;52.164;21.236;2022-12-07T13:43:24;99600.21;;;2.24;88.50
44453;BME280;30155;52.164;21.236;2022-12-07T13:48:43;99601.02;;;2.23;88.33
44453;BME280;30155;52.164;21.236;2022-12-07T13:53:30;99597.59;;;2.22;88.32
44453;BME280;30155;52.164;21.236;2022-12-07T13:58:22;99602.72;;;2.22;88.29
44453;BME280;30155;52.164;21.236;2022-12-07T14:13:31;99605.39;;;2.25;88.53
44453;BME280;30155;52.164;21.236;2022-12-07T14:23:28;99593.20;;;2.18;88.36
44453;BME280;30155;52.164;21.236;2022-12-07T14:28:35;99602.50;;;2.16;88.44
44453;BME280;30155;52.164;21.236;2022-12-07T14:33:26;99604.52;;;2.12;88.47
44453;BME280;30155;52.164;21.236;2022-12-07T14:38:17;99598.84;;;2.08;88.53
44453;BME280;30155;52.164;21.236;2022-12-07T14:43:11;99610.73;;;2.06;88.52
44453;BME280;30155;52.164;21.236;2022-12-07T14:48:04;99611.91;;;2.03;88.64
44453;BME280;30155;52.164;21.236;2022-12-07T14:52:59;99609.59;;;1.98;88.35
44453;BME280;30155;52.164;21.236;2022-12-07T14:57:51;99612.41;;;1.93;88.34
44453;BME280;30155;52.164;21.236;2022-12-07T15:02:42;99606.73;;;1.88;88.29
44453;BME280;30155;52.164;21.236;2022-12-07T15:07:34;99608.01;;;1.88;88.45
44453;BME280;30155;52.164;21.236;2022-12-07T15:12:25;99611.23;;;1.83;87.95
44453;BME280;30155;52.164;21.236;2022-12-07T15:17:16;99607.11;;;1.75;88.09
44453;BME280;30155;52.164;21.236;2022-12-07T15:22:08;99606.49;;;1.69;87.97
44453;BME280;30155;52.164;21.236;2022-12-07T15:27:02;99599.95;;;1.65;87.97
44453;BME280;30155;52.164;21.236;2022-12-07T15:31:54;99598.97;;;1.61;88.06
44453;BME280;30155;52.164;21.236;2022-12-07T15:36:45;99595.31;;;1.55;87.98
44453;BME280;30155;52.164;21.236;2022-12-07T15:41:37;99601.23;;;1.53;88.11
44453;BME280;30155;52.164;21.236;2022-12-07T15:46:33;99590.07;;;1.51;88.11
44453;BME280;30155;52.164;21.236;2022-12-07T15:51:26;99593.47;;;1.50;88.17
44453;BME280;30155;52.164;21.236;2022-12-07T15:56:18;99585.72;;;1.49;88.17
44453;BME280;30155;52.164;21.236;2022-12-07T16:01:11;99598.41;;;1.46;88.31
44453;BME280;30155;52.164;21.236;2022-12-07T16:06:03;99588.17;;;1.46;88.47
44453;BME280;30155;52.164;21.236;2022-12-07T16:10:54;99594.16;;;1.46;88.45
44453;BME280;30155;52.164;21.236;2022-12-07T16:15:45;99586.95;;;1.47;88.56
44453;BME280;30155;52.164;21.236;2022-12-07T16:20:38;99590.25;;;1.45;88.49
44453;BME280;30155;52.164;21.236;2022-12-07T16:25:30;99587.30;;;1.45;88.65
44453;BME280;30155;52.164;21.236;2022-12-07T16:30:21;99589.39;;;1.44;88.61
44453;BME280;30155;52.164;21.236;2022-12-07T16:35:13;99583.46;;;1.45;88.79
44453;BME280;30155;52.164;21.236;2022-12-07T16:40:05;99582.98;;;1.44;88.85
44453;BME280;30155;52.164;21.236;2022-12-07T16:44:57;99589.39;;;1.44;88.84
44453;BME280;30155;52.164;21.236;2022-12-07T16:49:48;99588.11;;;1.44;88.91
44453;BME280;30155;52.164;21.236;2022-12-07T16:54:39;99590.23;;;1.43;88.87
44453;BME280;30155;52.164;21.236;2022-12-07T16:59:30;99579.80;;;1.39;88.89
44453;BME280;30155;52.164;21.236;2022-12-07T17:04:21;99582.96;;;1.31;88.89
44453;BME280;30155;52.164;21.236;2022-12-07T17:09:13;99573.62;;;1.21;88.87
44453;BME280;30155;52.164;21.236;2022-12-07T17:14:04;99570.84;;;1.14;89.02
44453;BME280;30155;52.164;21.236;2022-12-07T17:19:17;99576.71;;;1.12;89.21
44453;BME280;30155;52.164;21.236;2022-12-07T17:24:10;99577.58;;;1.12;89.28
44453;BME280;30155;52.164;21.236;2022-12-07T17:29:05;99571.77;;;1.17;89.38
44453;BME280;30155;52.164;21.236;2022-12-07T17:33:56;99566.86;;;1.23;89.47
44453;BME280;30155;52.164;21.236;2022-12-07T17:38:48;99568.25;;;1.26;89.29
44453;BME280;30155;52.164;21.236;2022-12-07T17:43:39;99569.54;;;1.26;89.33
44453;BME280;30155;52.164;21.236;2022-12-07T17:48:30;99566.41;;;1.22;89.47
44453;BME280;30155;52.164;21.236;2022-12-07T17:53:21;99566.86;;;1.23;89.43
44453;BME280;30155;52.164;21.236;2022-12-07T17:58:12;99573.80;;;1.25;89.46
44453;BME280;30155;52.164;21.236;2022-12-07T18:03:05;99571.17;;;1.24;89.39
44453;BME280;30155;52.164;21.236;2022-12-07T18:07:58;99566.50;;;1.25;89.47
44453;BME280;30155;52.164;21.236;2022-12-07T18:12:49;99569.18;;;1.28;89.54
44453;BME280;30155;52.164;21.236;2022-12-07T18:17:40;99569.23;;;1.29;89.49
44453;BME280;30155;52.164;21.236;2022-12-07T18:22:32;99563.88;;;1.35;89.67
44453;BME280;30155;52.164;21.236;2022-12-07T18:27:23;99557.91;;;1.36;89.48
44453;BME280;30155;52.164;21.236;2022-12-07T18:32:14;99557.17;;;1.38;89.50
44453;BME280;30155;52.164;21.236;2022-12-07T18:37:04;99567.05;;;1.40;89.60
44453;BME280;30155;52.164;21.236;2022-12-07T18:41:56;99567.50;;;1.41;89.55
44453;BME280;30155;52.164;21.236;2022-12-07T18:46:47;99565.89;;;1.43;89.60
44453;BME280;30155;52.164;21.236;2022-12-07T18:51:39;99563.41;;;1.46;89.60
44453;BME280;30155;52.164;21.236;2022-12-07T18:56:31;99571.22;;;1.49;89.47
44453;BME280;30155;52.164;21.236;2022-12-07T19:01:22;99576.90;;;1.53;89.55
44453;BME280;30155;52.164;21.236;2022-12-07T19:06:13;99580.00;;;1.56;89.48
44453;BME280;30155;52.164;21.236;2022-12-07T19:11:04;99594.59;;;1.59;89.43
44453;BME280;30155;52.164;21.236;2022-12-07T19:15:57;99587.02;;;1.62;89.48
44453;BME280;30155;52.164;21.236;2022-12-07T19:20:48;99590.06;;;1.63;89.36
44453;BME280;30155;52.164;21.236;2022-12-07T19:25:39;99598.61;;;1.63;89.33
44453;BME280;30155;52.164;21.236;2022-12-07T19:30:30;99597.77;;;1.64;89.20
44453;BME280;30155;52.164;21.236;2022-12-07T19:35:21;99601.53;;;1.61;89.17
44453;BME280;30155;52.164;21.236;2022-12-07T19:40:12;99609.60;;;1.61;89.27
44453;BME280;30155;52.164;21.236;2022-12-07T19:45:04;99607.52;;;1.62;89.09
44453;BME280;30155;52.164;21.236;2022-12-07T19:49:56;99616.55;;;1.63;89.27
44453;BME280;30155;52.164;21.236;2022-12-07T19:54:47;99616.60;;;1.65;89.08
44453;BME280;30155;52.164;21.236;2022-12-07T19:59:38;99621.25;;;1.64;88.94
44453;BME280;30155;52.164;21.236;2022-12-07T20:04:32;99634.06;;;1.64;88.80
44453;BME280;30155;52.164;21.236;2022-12-07T20:09:26;99639.55;;;1.62;88.58
44453;BME280;30155;52.164;21.236;2022-12-07T20:14:17;99656.44;;;1.57;88.26
44453;BME280;30155;52.164;21.236;2022-12-07T20:19:09;99661.36;;;1.50;87.87
44453;BME280;30155;52.164;21.236;2022-12-07T20:24:02;99664.95;;;1.44;87.41
44453;BME280;30155;52.164;21.236;2022-12-07T20:28:55;99670.79;;;1.40;87.53
44453;BME280;30155;52.164;21.236;2022-12-07T20:33:47;99672.09;;;1.29;87.15
44453;BME280;30155;52.164;21.236;2022-12-07T20:38:39;99679.38;;;1.18;87.03
44453;BME280;30155;52.164;21.236;2022-12-07T20:43:30;99681.40;;;1.04;86.83
44453;BME280;30155;52.164;21.236;2022-12-07T20:48:21;99695.00;;;0.92;86.89
44453;BME280;30155;52.164;21.236;2022-12-07T20:53:12;99710.44;;;0.84;86.88
44453;BME280;30155;52.164;21.236;2022-12-07T20:58:03;99709.86;;;0.80;86.96
44453;BME280;30155;52.164;21.236;2022-12-07T21:02:55;99718.34;;;0.79;86.96
44453;BME280;30155;52.164;21.236;2022-12-07T21:07:49;99718.81;;;0.80;86.56
44453;BME280;30155;52.164;21.236;2022-12-07T21:12:40;99722.44;;;0.85;86.71
44453;BME280;30155;52.164;21.236;2022-12-07T21:17:32;99720.81;;;0.87;86.55
44453;BME280;30155;52.164;21.236;2022-12-07T21:22:23;99734.88;;;0.87;86.29
44453;BME280;30155;52.164;21.236;2022-12-07T21:27:14;99736.86;;;0.83;86.19
44453;BME280;30155;52.164;21.236;2022-12-07T21:32:05;99731.70;;;0.71;86.04
44453;BME280;30155;52.164;21.236;2022-12-07T21:36:57;99740.83;;;0.65;86.21
44453;BME280;30155;52.164;21.236;2022-12-07T21:41:47;99739.21;;;0.57;86.15
44453;BME280;30155;52.164;21.236;2022-12-07T21:46:39;99740.46;;;0.46;86.08
44453;BME280;30155;52.164;21.236;2022-12-07T21:51:31;99743.57;;;0.38;86.21
44453;BME280;30155;52.164;21.236;2022-12-07T21:56:25;99743.64;;;0.30;86.31
44453;BME280;30155;52.164;21.236;2022-12-07T22:01:23;99737.66;;;0.30;86.44
44453;BME280;30155;52.164;21.236;2022-12-07T22:06:23;99738.87;;;0.28;86.32
44453;BME280;30155;52.164;21.236;2022-12-07T22:11:14;99737.14;;;0.27;86.30
44453;BME280;30155;52.164;21.236;2022-12-07T22:16:06;99740.49;;;0.26;86.41
44453;BME280;30155;52.164;21.236;2022-12-07T22:20:59;99743.19;;;0.29;86.43
44453;BME280;30155;52.164;21.236;2022-12-07T22:25:50;99737.73;;;0.31;86.24
44453;BME280;30155;52.164;21.236;2022-12-07T22:30:41;99730.55;;;0.32;86.26
44453;BME280;30155;52.164;21.236;2022-12-07T22:35:33;99745.38;;;0.41;85.95
44453;BME280;30155;52.164;21.236;2022-12-07T22:40:24;99742.74;;;0.49;86.00
44453;BME280;30155;52.164;21.236;2022-12-07T22:45:15;99739.55;;;0.55;85.83
44453;BME280;30155;52.164;21.236;2022-12-07T22:50:08;99743.39;;;0.55;85.63
44453;BME280;30155;52.164;21.236;2022-12-07T22:54:59;99752.48;;;0.58;85.83
44453;BME280;30155;52.164;21.236;2022-12-07T22:59:50;99749.13;;;0.59;85.58
44453;BME280;30155;52.164;21.236;2022-12-07T23:04:41;99743.05;;;0.57;85.74
44453;BME280;30155;52.164;21.236;2022-12-07T23:09:33;99745.61;;;0.57;85.65
44453;BME280;30155;52.164;21.236;2022-12-07T23:14:28;99746.02;;;0.56;85.57
44453;BME280;30155;52.164;21.236;2022-12-07T23:19:23;99747.30;;;0.56;85.64
44453;BME280;30155;52.164;21.236;2022-12-07T23:24:15;99756.32;;;0.58;85.71
44453;BME280;30155;52.164;21.236;2022-12-07T23:29:06;99763.06;;;0.56;85.55
44453;BME280;30155;52.164;21.236;2022-12-07T23:33:57;99757.95;;;0.56;85.61
44453;BME280;30155;52.164;21.236;2022-12-07T23:38:50;99761.37;;;0.56;85.76
44453;BME280;30155;52.164;21.236;2022-12-07T23:43:43;99761.37;;;0.56;85.76
44453;BME280;30155;52.164;21.236;2022-12-07T23:48:35;99764.00;;;0.58;85.74
44453;BME280;30155;52.164;21.236;2022-12-07T23:53:27;99764.41;;;0.58;85.91
44453;BME280;30155;52.164;21.236;2022-12-07T23:58:21;99767.35;;;0.57;85.94
